Details From LJLJ - Ljubljana
To MKJP - Norman Manley Intl
Flight Number -
Tags Generated
Created
Modified
Stats Distance 4,684 nm / 8,675 km
Max Altitude 0 ft / 0 m
Waypoints 7
Social Downloads 1
Likes 0
Share VATSIM

Download

Looking for another format? Having issues loading an existing format? Contact us
Advertisement - Login to hide

Notes

Generated

Route

LJLJ MOSIT PIMUP RISUD SABRE MLY71 MKJP

ID Type Via Altitude Latitude Longitude Leg Dist Tot Dist Heading (true) Name
O LJLJ APT - 0 ft / 0 m 46.23249˚ 14.44039˚ - 0 nm - -
MOSIT FIX - 0 ft / 0 m 47.06917˚ 8.74389˚ 240 nm 240 nm 284° / 280° -
PIMUP FIX - 0 ft / 0 m 47.54028˚ 3.38750˚ 219 nm 460 nm 279° / 275° -
RISUD FIX - 0 ft / 0 m 47.77083˚ -1.69667˚ 206 nm 666 nm 276° / 272° -
SABRE FIX - 0 ft / 0 m 20.80917˚ -73.83222˚ 3776 nm 4442 nm 272° / 226° -
MLY71 FIX - 0 ft / 0 m 17.94091˚ -76.80520˚ 240 nm 4683 nm 225° / 224° -
O MKJP APT - 0 ft / 0 m 17.94026˚ -76.79945˚ 0 nm 4684 nm 97° / 97° -

Altitude Profile

Advertisement - Login to hide

Weather


0- 5 10 15 20 25 30 35+ Temperature / ° C

Clouds and Precipitation
Forecast for 2018-05-28 00:00 UTC. Updated 6 hours ago

Ground ~20,000 ft ~40,000 ft Winds

LJLJ

Details ICAO LJLJ (LJU)
Name LJUBLJANA
Region Slovenia
Timezone Europe/Ljubljana (UTC+2.0)
Stats Elevation 1,273 ft / 388 m (AMSL)
Location 46.223685° 14.457608°
Runways 1
Magnetic Variation 3.713° E

METAR

Not found

TAF

TAF LJLJ 272000Z 2721/2821 30003KT 9999 FEW040 SCT110 BKN230 PROB30 TEMPO 2722/2811 VRB15KT 5000 TSRA BKN035CB BECMG 2808/2810 13005KT TEMPO 2811/2821 SHRA SCT040TCU BKN055 PROB40 TEMPO 2811/2820 VRB15KT 5000 TSRA BKN035CB

Decode

Departure Runways

ID Width Length Bearing (true) Bearing (mag) Surface Threshold Offset Overrun Length
13 148 ft / 45 m 10,811 ft / 3,295 m 126.47° 122.76° Asphalt 0 ft / 0 m 0 ft / 0 m
31 148 ft / 45 m 10,811 ft / 3,295 m 306.49° 302.78° Asphalt 0 ft / 0 m 0 ft / 0 m

MKJP

Details ICAO MKJP (KIN)
Name Norman Manley Intl
Region Jamaica
Timezone Unknown (UTC+0.0)
Stats Elevation 10 ft / 3 m (AMSL)
Location 17.935665° -76.787560°
Runways 1
Magnetic Variation 7.592° W

METAR

Not found

TAF

TAF MKJP 272315Z 2800/2824 13018KT 9999 FEW022 SCT038

Decode

Destination Runways

ID Width Length Bearing (true) Bearing (mag) Surface Threshold Offset Overrun Length
12 150 ft / 46 m 8,912 ft / 2,717 m 112.09° 119.68° Asphalt 0 ft / 0 m 0 ft / 0 m
30 150 ft / 46 m 8,912 ft / 2,717 m 292.10° 299.69° Asphalt 0 ft / 0 m 0 ft / 0 m

Approach Navaids

Runway Type Ident Frequency Range Bearing (true) Bearing (mag) Slope Elevation
12 Localiser IMLY 109.10 MHz 18 nm / 33 km 115.09° 122.68° - 10 ft / 3 m (AMSL)
12 Glidescope IMLY 109.10 MHz 10 nm / 19 km 115.09° 122.68° 3.00° 8 ft / 2 m (AMSL)